createdAt,value
2018-08-22T00:00:38.009Z,17.30
2018-08-22T00:03:06.443Z,17.20
2018-08-22T00:05:34.418Z,17.20
2018-08-22T00:08:02.427Z,17.20
2018-08-22T00:10:30.489Z,17.20
2018-08-22T00:12:58.556Z,17.20
2018-08-22T00:15:26.487Z,17.30
2018-08-22T00:17:54.471Z,17.20
2018-08-22T00:20:22.361Z,17.20
2018-08-22T00:22:50.278Z,17.10
2018-08-22T00:25:18.299Z,17.10
2018-08-22T00:27:46.270Z,17.10
2018-08-22T00:30:14.322Z,17.00
2018-08-22T00:32:42.372Z,17.00
2018-08-22T00:35:10.421Z,17.00
2018-08-22T00:37:38.396Z,17.00
2018-08-22T00:40:06.495Z,16.90
2018-08-22T00:42:34.462Z,16.90
2018-08-22T00:45:02.365Z,16.80
2018-08-22T00:47:30.180Z,16.80
2018-08-22T00:49:58.061Z,16.90
2018-08-22T00:52:25.878Z,16.80
2018-08-22T00:54:53.668Z,16.80
2018-08-22T00:57:21.579Z,16.80
2018-08-22T00:59:49.636Z,16.70
2018-08-22T01:02:17.497Z,16.70
2018-08-22T01:04:45.412Z,16.70
2018-08-22T01:07:13.339Z,16.70
2018-08-22T01:09:41.437Z,16.70
2018-08-22T01:12:09.596Z,16.70
2018-08-22T01:14:37.921Z,16.70
2018-08-22T01:17:06.793Z,16.60
2018-08-22T01:19:34.998Z,16.50
2018-08-22T01:22:02.971Z,16.40
2018-08-22T01:24:30.880Z,16.40
2018-08-22T01:26:58.878Z,16.40
2018-08-22T01:29:26.823Z,16.40
2018-08-22T01:31:54.673Z,16.30
2018-08-22T01:34:22.481Z,16.40
2018-08-22T01:36:50.482Z,16.30
2018-08-22T01:39:18.670Z,16.20
2018-08-22T01:41:46.495Z,16.10
2018-08-22T01:44:14.362Z,16.20
2018-08-22T01:46:42.343Z,16.10
2018-08-22T01:49:10.454Z,16.00
2018-08-22T01:51:38.614Z,16.00
2018-08-22T01:54:07.167Z,16.00
2018-08-22T01:56:35.288Z,15.90
2018-08-22T01:59:03.220Z,16.00
2018-08-22T02:01:31.082Z,16.00
2018-08-22T02:03:59.022Z,15.90
2018-08-22T02:06:27.018Z,15.90
2018-08-22T02:08:54.967Z,15.90
2018-08-22T02:11:22.976Z,15.90
2018-08-22T02:13:50.833Z,15.90
2018-08-22T02:16:18.743Z,15.90
2018-08-22T02:18:46.648Z,15.90
2018-08-22T02:21:14.720Z,15.90
2018-08-22T02:23:42.786Z,15.90
2018-08-22T02:26:10.878Z,15.90
2018-08-22T02:28:38.840Z,15.80
2018-08-22T02:31:07.209Z,15.80
2018-08-22T02:33:35.294Z,15.80
2018-08-22T02:36:03.399Z,15.70
2018-08-22T02:38:31.255Z,15.70
2018-08-22T02:40:59.171Z,15.70
2018-08-22T02:43:27.122Z,15.60
2018-08-22T02:45:54.978Z,15.50
2018-08-22T02:48:22.810Z,15.50
2018-08-22T02:50:50.702Z,15.50
2018-08-22T02:53:18.721Z,15.50
2018-08-22T02:55:46.719Z,15.40
2018-08-22T02:58:14.779Z,15.30
2018-08-22T03:00:42.859Z,15.30
2018-08-22T03:03:10.979Z,15.40
2018-08-22T03:05:39.157Z,15.30
2018-08-22T03:08:07.579Z,15.20
2018-08-22T03:10:35.782Z,15.20
2018-08-22T03:13:04.660Z,15.10
2018-08-22T03:15:32.574Z,15.10
2018-08-22T03:18:00.496Z,15.10
2018-08-22T03:20:28.464Z,15.10
2018-08-22T03:22:56.479Z,15.20
2018-08-22T03:25:24.341Z,15.20
2018-08-22T03:27:52.567Z,15.10
2018-08-22T03:30:20.392Z,15.10
2018-08-22T03:32:48.362Z,15.00
2018-08-22T03:35:16.375Z,15.00
2018-08-22T03:37:52.067Z,14.90
2018-08-22T03:40:20.000Z,14.90
2018-08-22T03:42:47.884Z,14.80
2018-08-22T03:45:16.083Z,14.80
2018-08-22T03:47:44.301Z,14.80
2018-08-22T03:50:12.428Z,14.90
2018-08-22T03:52:40.578Z,14.90
2018-08-22T03:55:08.796Z,14.90
2018-08-22T03:57:37.397Z,15.00
2018-08-22T04:00:05.816Z,14.90
2018-08-22T04:02:33.724Z,15.00
2018-08-22T04:05:01.671Z,14.90
2018-08-22T04:07:29.700Z,14.90
2018-08-22T04:09:57.615Z,14.90
2018-08-22T04:12:25.579Z,14.80
2018-08-22T04:14:53.769Z,14.90
2018-08-22T04:17:26.275Z,14.80
2018-08-22T04:19:54.138Z,14.80
2018-08-22T04:22:22.106Z,14.80
2018-08-22T04:24:50.262Z,14.90
2018-08-22T04:27:18.217Z,14.90
2018-08-22T04:29:46.568Z,15.00
2018-08-22T04:32:14.994Z,14.80
2018-08-22T04:34:43.319Z,14.80
2018-08-22T04:37:11.643Z,14.70
2018-08-22T04:39:40.004Z,14.70
2018-08-22T04:42:08.501Z,14.70
2018-08-22T04:44:36.955Z,14.70
2018-08-22T04:47:05.107Z,14.60
2018-08-22T04:49:33.115Z,14.70
2018-08-22T04:52:01.103Z,14.70
2018-08-22T04:54:28.950Z,14.70
2018-08-22T04:56:56.914Z,14.80
2018-08-22T04:59:24.849Z,14.80
2018-08-22T05:01:58.323Z,14.90
2018-08-22T05:04:26.404Z,15.00
2018-08-22T05:06:54.138Z,14.90
2018-08-22T05:09:22.088Z,14.90
2018-08-22T05:11:50.359Z,15.00
2018-08-22T05:14:18.196Z,15.00
2018-08-22T05:16:46.210Z,15.10
2018-08-22T05:19:14.513Z,15.10
2018-08-22T05:21:42.702Z,15.20
2018-08-22T05:24:11.650Z,15.20
2018-08-22T05:26:39.973Z,15.30
2018-08-22T05:29:08.495Z,15.50
2018-08-22T05:31:36.910Z,15.60
2018-08-22T05:34:05.163Z,15.60
2018-08-22T05:36:33.121Z,15.70
2018-08-22T05:39:01.115Z,15.70
2018-08-22T05:41:29.153Z,15.70
2018-08-22T05:43:57.076Z,15.70
2018-08-22T05:46:25.113Z,15.90
2018-08-22T05:48:53.047Z,16.00
2018-08-22T05:51:21.211Z,16.10
2018-08-22T05:53:49.126Z,16.20
2018-08-22T05:56:17.518Z,16.30
2018-08-22T05:58:45.746Z,16.40
2018-08-22T06:01:14.281Z,16.50
2018-08-22T06:03:42.539Z,16.60
2018-08-22T06:06:10.771Z,16.60
2018-08-22T06:08:39.220Z,16.70
2018-08-22T06:11:07.689Z,16.90
2018-08-22T06:13:36.285Z,16.80
2018-08-22T06:16:04.444Z,16.90
2018-08-22T06:18:32.406Z,17.10
2018-08-22T06:21:00.308Z,17.10
2018-08-22T06:23:28.343Z,17.20
2018-08-22T06:25:56.302Z,17.40
2018-08-22T06:28:24.331Z,17.50
2018-08-22T06:30:52.807Z,17.50
2018-08-22T06:33:20.708Z,17.70
2018-08-22T06:35:48.662Z,18.20
2018-08-22T06:38:16.911Z,18.90
2018-08-22T06:40:45.071Z,19.60
2018-08-22T06:43:13.267Z,20.10
2018-08-22T06:45:41.427Z,20.70
2018-08-22T06:48:09.706Z,21.20
2018-08-22T06:50:38.119Z,21.70
2018-08-22T06:53:06.290Z,22.30
2018-08-22T06:55:34.384Z,22.60
2018-08-22T06:58:02.981Z,22.80
2018-08-22T07:00:30.945Z,22.90
2018-08-22T07:02:58.852Z,22.80
2018-08-22T07:05:26.967Z,23.10
2018-08-22T07:07:54.949Z,23.10
2018-08-22T07:10:22.899Z,23.40
2018-08-22T07:12:50.992Z,23.40
2018-08-22T07:15:18.921Z,23.70
2018-08-22T07:17:46.856Z,23.70
2018-08-22T07:20:15.059Z,24.00
2018-08-22T07:22:43.104Z,23.80
2018-08-22T07:25:11.507Z,24.00
2018-08-22T07:27:39.729Z,24.00
2018-08-22T07:30:08.103Z,24.10
2018-08-22T07:32:36.472Z,24.30
2018-08-22T07:35:05.356Z,24.50
2018-08-22T07:37:33.384Z,24.50
2018-08-22T07:40:01.366Z,24.80
2018-08-22T07:42:29.354Z,24.90
2018-08-22T07:44:57.290Z,25.20
2018-08-22T07:47:25.255Z,25.60
2018-08-22T07:49:53.272Z,25.80
2018-08-22T07:52:22.386Z,26.10
2018-08-22T07:54:50.424Z,26.20
2018-08-22T07:57:21.079Z,26.10
2018-08-22T07:59:49.602Z,26.10
2018-08-22T08:02:17.656Z,26.10
2018-08-22T08:04:45.739Z,26.10
2018-08-22T08:07:14.119Z,26.20
2018-08-22T08:09:42.246Z,26.30
2018-08-22T08:12:10.353Z,26.60
2018-08-22T08:14:38.768Z,26.80
2018-08-22T08:17:07.013Z,26.50
2018-08-22T08:19:35.204Z,26.60
2018-08-22T08:22:03.416Z,26.80
2018-08-22T08:24:33.176Z,27.00
2018-08-22T08:27:01.204Z,27.10
2018-08-22T08:29:29.289Z,27.30
2018-08-22T08:31:57.564Z,27.30
2018-08-22T08:34:28.267Z,27.30
2018-08-22T08:36:56.571Z,27.50
2018-08-22T08:39:24.831Z,27.70
2018-08-22T08:41:53.009Z,28.00
2018-08-22T08:44:21.089Z,28.30
2018-08-22T08:46:49.364Z,28.00
2018-08-22T08:49:17.499Z,27.90
2018-08-22T08:52:00.957Z,27.80
2018-08-22T08:54:29.727Z,28.00
2018-08-22T08:56:58.114Z,28.30
2018-08-22T08:59:26.280Z,28.40
2018-08-22T09:01:54.413Z,28.50
2018-08-22T09:04:22.449Z,28.60
2018-08-22T09:06:50.662Z,28.70
2018-08-22T09:09:19.175Z,28.60
2018-08-22T09:12:03.313Z,28.40
2018-08-22T09:14:31.611Z,28.40
2018-08-22T09:17:00.077Z,28.40
2018-08-22T09:19:28.265Z,28.20
2018-08-22T09:21:56.852Z,28.00
2018-08-22T09:24:25.237Z,28.10
2018-08-22T09:26:53.572Z,28.20
2018-08-22T09:29:21.659Z,28.10
2018-08-22T09:31:49.752Z,28.10
2018-08-22T09:34:17.838Z,28.20
2018-08-22T09:36:45.916Z,28.20
2018-08-22T09:39:14.410Z,28.30
2018-08-22T09:41:43.062Z,28.00
2018-08-22T09:44:11.354Z,27.70
2018-08-22T09:46:40.410Z,27.70
2018-08-22T09:49:09.089Z,27.80
2018-08-22T09:51:37.362Z,27.80
2018-08-22T09:54:05.648Z,27.90
2018-08-22T09:56:33.578Z,28.00
2018-08-22T09:59:01.529Z,28.20
2018-08-22T10:01:34.881Z,28.30
2018-08-22T10:04:02.859Z,28.50
2018-08-22T10:06:36.134Z,28.50
2018-08-22T10:09:11.661Z,28.70
2018-08-22T10:11:39.979Z,28.80
2018-08-22T10:14:08.334Z,28.80
2018-08-22T10:16:36.834Z,28.70
2018-08-22T10:19:06.572Z,28.80
2018-08-22T10:21:34.844Z,28.80
2018-08-22T10:24:02.881Z,28.90
2018-08-22T10:26:30.929Z,28.90
2018-08-22T10:28:58.902Z,29.00
2018-08-22T10:31:27.104Z,29.00
2018-08-22T10:33:55.455Z,29.10
2018-08-22T10:36:23.494Z,29.20
2018-08-22T10:38:51.571Z,29.20
2018-08-22T10:41:19.599Z,29.30
2018-08-22T10:43:47.631Z,29.40
2018-08-22T10:46:15.639Z,29.30
2018-08-22T10:48:43.909Z,29.30
2018-08-22T10:51:12.038Z,29.30
2018-08-22T10:53:40.139Z,29.40
2018-08-22T10:56:08.591Z,29.40
2018-08-22T10:58:37.110Z,29.30
2018-08-22T11:01:06.194Z,29.60
2018-08-22T11:03:34.171Z,29.40
2018-08-22T11:06:02.109Z,29.50
2018-08-22T11:08:29.950Z,29.70
2018-08-22T11:10:57.815Z,29.90
2018-08-22T11:13:25.938Z,30.00
2018-08-22T11:15:53.964Z,30.00
2018-08-22T11:18:21.852Z,30.00
2018-08-22T11:20:52.692Z,29.90
2018-08-22T11:23:32.758Z,29.70
2018-08-22T11:26:12.646Z,29.60
2018-08-22T11:28:51.764Z,29.40
2018-08-22T11:31:30.967Z,29.30
2018-08-22T11:34:10.260Z,29.40
2018-08-22T11:36:37.515Z,29.50
2018-08-22T11:39:07.379Z,29.60
2018-08-22T11:41:35.525Z,29.60
2018-08-22T11:44:03.610Z,29.50
2018-08-22T11:46:31.551Z,29.40
2018-08-22T11:48:59.372Z,29.30
2018-08-22T11:51:28.392Z,29.30
2018-08-22T11:53:56.356Z,29.60
2018-08-22T11:56:24.279Z,29.80
2018-08-22T11:58:52.150Z,29.80
2018-08-22T12:01:20.212Z,29.80
2018-08-22T12:03:48.172Z,29.60
2018-08-22T12:06:16.251Z,29.50
2018-08-22T12:08:44.207Z,29.60
2018-08-22T12:11:12.538Z,29.60
2018-08-22T12:13:40.878Z,29.60
2018-08-22T12:16:09.418Z,29.50
2018-08-22T12:18:37.837Z,29.30
2018-08-22T12:21:06.526Z,29.20
2018-08-22T12:23:34.590Z,29.10
2018-08-22T12:26:02.546Z,29.10
2018-08-22T12:28:30.526Z,29.00
2018-08-22T12:30:58.452Z,29.00
2018-08-22T12:33:26.549Z,29.10
2018-08-22T12:35:54.542Z,29.10
2018-08-22T12:38:22.413Z,29.10
2018-08-22T12:40:50.325Z,29.20
2018-08-22T12:43:18.674Z,29.50
2018-08-22T12:45:46.816Z,29.80
2018-08-22T12:48:14.924Z,30.10
2018-08-22T12:50:43.117Z,30.40
2018-08-22T12:53:11.439Z,30.50
2018-08-22T12:55:39.921Z,30.60
2018-08-22T12:58:08.110Z,30.60
2018-08-22T13:00:36.725Z,30.70
2018-08-22T13:03:05.015Z,30.90
2018-08-22T13:05:32.954Z,31.00
2018-08-22T13:08:00.852Z,31.20
2018-08-22T13:10:28.751Z,31.00
2018-08-22T13:12:56.684Z,31.00
2018-08-22T13:15:24.638Z,31.20
2018-08-22T13:17:52.519Z,31.30
2018-08-22T13:20:20.420Z,31.50
2018-08-22T13:22:48.387Z,31.50
2018-08-22T13:25:16.470Z,31.50
2018-08-22T13:27:44.653Z,31.60
2018-08-22T13:30:13.404Z,31.70
2018-08-22T13:32:41.853Z,31.70
2018-08-22T13:35:10.450Z,31.80
2018-08-22T13:37:39.267Z,31.70
2018-08-22T13:40:08.660Z,31.80
2018-08-22T13:42:37.316Z,31.90
2018-08-22T13:45:06.553Z,32.10
2018-08-22T13:47:35.299Z,32.10
2018-08-22T13:50:03.341Z,32.10
2018-08-22T13:52:31.303Z,32.10
2018-08-22T13:54:59.233Z,32.00
2018-08-22T13:57:27.306Z,32.00
2018-08-22T13:59:55.275Z,32.00
2018-08-22T14:02:23.186Z,31.80
2018-08-22T14:04:51.201Z,31.60
2018-08-22T14:07:19.174Z,31.40
2018-08-22T14:09:47.244Z,31.10
2018-08-22T14:12:15.698Z,30.90
2018-08-22T14:14:44.214Z,30.70
2018-08-22T14:17:13.205Z,30.70
2018-08-22T14:19:41.397Z,30.50
2018-08-22T14:22:09.779Z,30.40
2018-08-22T14:24:38.214Z,30.20
2018-08-22T14:27:06.862Z,29.90
2018-08-22T14:29:34.907Z,29.80
2018-08-22T14:32:03.148Z,29.70
2018-08-22T14:34:31.114Z,29.80
2018-08-22T14:36:59.231Z,29.90
2018-08-22T14:39:27.219Z,30.10
2018-08-22T14:41:57.140Z,30.20
2018-08-22T14:44:25.668Z,30.50
2018-08-22T14:46:54.376Z,30.60
2018-08-22T14:49:22.794Z,30.50
2018-08-22T14:51:50.885Z,30.40
2018-08-22T14:54:18.948Z,30.30
2018-08-22T14:56:47.303Z,30.40
2018-08-22T14:59:15.373Z,30.50
2018-08-22T15:01:43.598Z,30.60
2018-08-22T15:04:11.797Z,30.40
2018-08-22T15:06:40.391Z,30.50
2018-08-22T15:09:14.348Z,30.60
2018-08-22T15:11:42.389Z,30.80
2018-08-22T15:14:10.720Z,30.90
2018-08-22T15:16:38.958Z,30.80
2018-08-22T15:19:07.672Z,30.90
2018-08-22T15:21:36.496Z,30.90
2018-08-22T15:24:04.842Z,30.90
2018-08-22T15:26:33.028Z,31.00
2018-08-22T15:29:01.322Z,31.00
2018-08-22T15:31:29.760Z,31.10
2018-08-22T15:33:59.953Z,31.20
2018-08-22T15:36:28.162Z,31.10
2018-08-22T15:38:58.560Z,31.00
2018-08-22T15:41:27.774Z,31.00
2018-08-22T15:43:55.948Z,30.90
2018-08-22T15:46:24.311Z,30.70
2018-08-22T15:48:52.249Z,30.40
2018-08-22T15:51:20.212Z,30.10
2018-08-22T15:54:14.178Z,29.80
2018-08-22T15:56:43.059Z,29.80
2018-08-22T15:59:12.143Z,29.80
2018-08-22T16:01:41.323Z,30.00
2018-08-22T16:04:10.447Z,29.90
2018-08-22T16:06:39.709Z,30.10
2018-08-22T16:09:20.602Z,30.20
2018-08-22T16:11:48.470Z,29.90
2018-08-22T16:14:16.880Z,29.80
2018-08-22T16:16:45.188Z,29.80
2018-08-22T16:19:13.625Z,29.60
2018-08-22T16:21:42.242Z,29.60
2018-08-22T16:24:11.176Z,29.60
2018-08-22T16:26:39.937Z,29.70
2018-08-22T16:29:09.182Z,29.60
2018-08-22T16:31:44.776Z,29.60
2018-08-22T16:34:13.957Z,29.70
2018-08-22T16:36:42.288Z,29.90
2018-08-22T16:39:11.504Z,29.90
2018-08-22T16:41:40.068Z,29.80
2018-08-22T16:44:09.552Z,29.70
2018-08-22T16:46:38.088Z,29.50
2018-08-22T16:49:06.744Z,29.40
2018-08-22T16:51:34.837Z,29.20
2018-08-22T16:54:09.806Z,29.20
2018-08-22T16:56:38.794Z,29.00
2018-08-22T16:59:09.433Z,29.00
2018-08-22T17:01:40.693Z,28.90
2018-08-22T17:04:10.591Z,28.80
2018-08-22T17:06:39.523Z,28.70
2018-08-22T17:09:10.285Z,28.60
2018-08-22T17:11:38.874Z,28.60
2018-08-22T17:14:08.237Z,28.50
2018-08-22T17:16:37.308Z,28.40
2018-08-22T17:19:05.629Z,28.30
2018-08-22T17:21:33.644Z,28.20
2018-08-22T17:24:01.831Z,28.00
2018-08-22T17:26:29.808Z,28.00
2018-08-22T17:28:58.886Z,27.90
2018-08-22T17:31:28.219Z,27.90
2018-08-22T17:33:57.568Z,27.80
2018-08-22T17:36:25.513Z,27.70
2018-08-22T17:38:55.679Z,27.60
2018-08-22T17:41:26.620Z,27.50
2018-08-22T17:44:11.509Z,27.40
2018-08-22T17:46:44.473Z,27.30
2018-08-22T17:49:15.177Z,27.30
2018-08-22T17:51:59.354Z,27.10
2018-08-22T17:54:28.075Z,27.00
2018-08-22T17:57:09.665Z,27.00
2018-08-22T17:59:40.187Z,26.90
2018-08-22T18:02:09.623Z,26.80
2018-08-22T18:04:59.793Z,26.70
2018-08-22T18:07:27.909Z,26.60
2018-08-22T18:09:56.341Z,26.50
2018-08-22T18:12:27.104Z,26.50
2018-08-22T18:15:01.793Z,26.30
2018-08-22T18:17:30.586Z,26.30
2018-08-22T18:19:58.969Z,26.20
2018-08-22T18:22:37.566Z,26.10
2018-08-22T18:25:09.436Z,26.00
2018-08-22T18:27:41.587Z,25.90
2018-08-22T18:30:12.927Z,25.90
2018-08-22T18:32:42.184Z,25.80
2018-08-22T18:35:12.158Z,25.70
2018-08-22T18:37:41.857Z,25.60
2018-08-22T18:40:19.961Z,25.60
2018-08-22T18:42:53.341Z,25.50
2018-08-22T18:45:22.220Z,25.50
2018-08-22T19:01:19.367Z,25.30
2018-08-22T19:03:47.340Z,25.00
2018-08-22T19:06:15.358Z,24.90
2018-08-22T19:08:43.448Z,24.80
2018-08-22T19:11:11.756Z,24.80
2018-08-22T19:13:39.988Z,24.70
2018-08-22T19:16:09.374Z,24.60
2018-08-22T19:18:37.450Z,24.60
2018-08-22T19:21:06.906Z,24.50
2018-08-22T19:23:35.877Z,24.50
2018-08-22T19:26:05.138Z,24.40
2018-08-22T19:28:47.504Z,24.40
2018-08-22T19:31:15.649Z,24.30
2018-08-22T19:33:43.845Z,24.30
2018-08-22T19:36:12.179Z,24.20
2018-08-22T19:38:40.338Z,24.10
2018-08-22T19:41:19.962Z,24.10
2018-08-22T19:43:47.987Z,24.00
2018-08-22T19:46:15.943Z,24.00
2018-08-22T19:48:44.099Z,23.90
2018-08-22T19:51:14.217Z,23.80
2018-08-22T19:54:00.155Z,23.70
2018-08-22T19:56:29.116Z,23.60
2018-08-22T19:58:57.500Z,23.50
2018-08-22T20:01:25.702Z,23.40
2018-08-22T20:06:48.923Z,23.30
2018-08-22T20:09:16.596Z,23.20
2018-08-22T20:11:44.587Z,23.20
2018-08-22T20:14:12.640Z,23.10
2018-08-22T20:16:40.905Z,23.10
2018-08-22T20:19:09.159Z,23.00
2018-08-22T20:21:40.140Z,22.90
2018-08-22T20:24:10.197Z,22.90
2018-08-22T20:26:43.021Z,22.70
2018-08-22T20:29:11.639Z,22.70
2018-08-22T20:31:40.039Z,22.60
2018-08-22T20:34:15.599Z,22.60
2018-08-22T20:36:45.404Z,22.40
2018-08-22T20:39:13.985Z,22.40
2018-08-22T20:41:42.674Z,22.20
2018-08-22T20:44:15.930Z,22.20
2018-08-22T20:46:44.937Z,22.10
2018-08-22T20:49:14.457Z,22.00
2018-08-22T20:51:42.697Z,21.90
2018-08-22T20:54:13.084Z,21.80
2018-08-22T20:56:47.543Z,21.70
2018-08-22T20:59:21.657Z,21.70
2018-08-22T21:01:54.808Z,21.60
2018-08-22T21:04:31.342Z,21.70
2018-08-22T21:07:00.842Z,21.60
2018-08-22T21:09:28.750Z,21.50
2018-08-22T21:12:01.059Z,21.40
2018-08-22T21:14:30.122Z,21.20
2018-08-22T21:16:58.173Z,21.20
2018-08-22T21:19:26.199Z,21.20
2018-08-22T21:22:00.060Z,21.00
2018-08-22T21:24:28.222Z,21.00
2018-08-22T21:26:56.229Z,20.90
2018-08-22T21:29:24.146Z,20.90
2018-08-22T21:31:52.150Z,20.80
2018-08-22T21:34:20.200Z,20.80
2018-08-22T21:36:48.673Z,20.70
2018-08-22T21:39:24.976Z,20.60
2018-08-22T21:41:53.101Z,20.50
2018-08-22T21:44:22.035Z,20.50
2018-08-22T21:46:58.539Z,20.40
2018-08-22T21:49:26.860Z,20.40
2018-08-22T21:51:59.485Z,20.30
2018-08-22T21:54:27.669Z,20.20
2018-08-22T21:56:55.644Z,20.20
2018-08-22T21:59:23.570Z,20.20
2018-08-22T22:01:57.237Z,20.20
2018-08-22T22:04:30.909Z,20.20
2018-08-22T22:06:58.687Z,20.10
2018-08-22T22:09:26.527Z,20.00
2018-08-22T22:11:58.008Z,20.00
2018-08-22T22:14:33.948Z,20.00
2018-08-22T22:17:02.828Z,19.90
2018-08-22T22:19:32.008Z,19.90
2018-08-22T22:22:00.489Z,19.80
2018-08-22T22:24:28.518Z,19.70
2018-08-22T22:26:56.551Z,19.60
2018-08-22T22:29:26.946Z,19.60
2018-08-22T22:31:54.830Z,19.50
2018-08-22T22:34:22.553Z,19.60
2018-08-22T22:36:50.464Z,19.60
2018-08-22T22:39:34.146Z,19.50
2018-08-22T22:42:39.197Z,19.40
2018-08-22T22:45:07.198Z,19.30
2018-08-22T22:47:35.792Z,19.30
2018-08-22T22:50:03.913Z,19.30
2018-08-22T22:52:35.907Z,19.20
2018-08-22T22:55:05.181Z,19.20
2018-08-22T22:57:34.530Z,19.20
2018-08-22T23:00:03.423Z,19.20
2018-08-22T23:02:32.134Z,19.20
2018-08-22T23:05:01.008Z,19.20
2018-08-22T23:07:30.229Z,19.20
2018-08-22T23:09:59.360Z,19.10
2018-08-22T23:12:33.694Z,19.10
2018-08-22T23:15:01.636Z,19.10
2018-08-22T23:17:29.506Z,19.10
2018-08-22T23:20:14.116Z,19.00
2018-08-22T23:22:42.260Z,19.00
2018-08-22T23:25:10.914Z,19.00
2018-08-22T23:27:40.084Z,19.10
2018-08-22T23:30:08.872Z,19.10
2018-08-22T23:32:37.901Z,19.10
2018-08-22T23:35:19.201Z,19.10
2018-08-22T23:37:52.059Z,19.20
2018-08-22T23:40:20.985Z,19.30
2018-08-22T23:42:48.837Z,19.30
2018-08-22T23:45:16.997Z,19.30
2018-08-22T23:47:45.062Z,19.30
2018-08-22T23:50:13.278Z,19.20
2018-08-22T23:52:46.805Z,19.20
2018-08-22T23:55:14.800Z,19.20
2018-08-22T23:57:42.729Z,19.20
